Bladensburg, MD

9:45 PM EST on December 24, 2014 (GMT -0500)
Andrews Air Force Base-Naf | Change Station
CLOSE
Current Station
Airport
Location: Andrews AFB,
Elevation: 282 ft
Nearby Weather Stations
Active Advisory: Dense Fog Advisory

Elev 282 ft 38.81 °N, 76.87 °W | Updated 15 minutes ago

Fog
Fog
57 °F
Feels Like 57 °F
N
16
Wind Variable Wind from South

Today
High -- | Low -- °F
--% Chance of Precip.
Yesterday
High -- | Low -- °F
Precip. -- in
7:24 AM 4:50 PM
Waxing Crescent, 12% visible
Pressure 29.56 in
Visibility 9.0 miles
Clouds Overcast 200 ft
Dew Point 57 °F
Humidity 100%
Rainfall 0.60 in
Snow Depth Not available.
UV 0 out of 12
Pollen .10 out of 12
Air Quality Not available.
Flu Activity Not available.
SPECI KADW 250230Z AUTO 18014KT 9SM OVC002 14/14 A2956 RMK AO2

More Conditions Fewer Conditions

Pressure 29.56 in
Visibility 9.0 miles
Clouds Overcast 200 ft
Dew Point 57 °F
Humidity 100%
Rainfall 0.60 in
Snow Depth Not available.
UV 0 out of 12
Pollen .10 out of 12
Air Quality Not available.
Flu Activity Not available.
SPECI KADW 250230Z AUTO 18014KT 9SM OVC002 14/14 A2956 RMK AO2

More Conditions Fewer Conditions

Nowcast | as of 9:03 PM EST on December 24, 2014

Areas of fog with patchy dense fog will continue through the early overnight hours. Visibilities will be reduced to 2 mile at times...with isolated areas dropping to a half mile or less. The fog is expected to dissipate later tonight as a cold front moves through. Motorists are asked to exercise caution for rapidly changing visibilities.

×

10-Day Weather Forecast

Almanac

Astronomy

Dec. 24, 2014 Rise Set
Actual Time
Civil Twilight
Nautical Twilight
Astronomical Twilight
Moon
Length of Visible Light
Length of Day
Tomorrow will be .
, % of the Moon is Illuminated

Today's Extremes

State Highs State Lows

Community

WunderPhotos

Upload Photos

1,780,215 photos uploaded!

WunderBlogs® & News

Nearby

Air Quality

  Air Quality AQ Index Pollutant
Not available.

Snow Depth

Station Depth Elevation

Earthquake Activity

City Distance Mag. Time & Date
Minimum magnitude displayed is 2.5.

Coastal Water Temperatures

Place Temperature

Nearby Weather Stations